sensor_id;sensor_type;location;lat;lon;timestamp;P1;durP1;ratioP1;P2;durP2;ratioP2
76228;SDS011;65021;53.174;18.160;2023-05-07T00:01:26;4.80;;;2.90;;
76228;SDS011;65021;53.174;18.160;2023-05-07T00:03:53;9.60;;;4.40;;
76228;SDS011;65021;53.174;18.160;2023-05-07T00:06:20;9.40;;;3.40;;
76228;SDS011;65021;53.174;18.160;2023-05-07T00:08:46;9.30;;;4.30;;
76228;SDS011;65021;53.174;18.160;2023-05-07T00:11:13;10.90;;;4.90;;
76228;SDS011;65021;53.174;18.160;2023-05-07T00:13:39;11.50;;;5.90;;
76228;SDS011;65021;53.174;18.160;2023-05-07T00:16:06;12.50;;;6.20;;
76228;SDS011;65021;53.174;18.160;2023-05-07T00:18:32;9.60;;;4.00;;
76228;SDS011;65021;53.174;18.160;2023-05-07T00:20:59;10.20;;;5.40;;
76228;SDS011;65021;53.174;18.160;2023-05-07T00:23:25;10.50;;;4.70;;
76228;SDS011;65021;53.174;18.160;2023-05-07T00:25:52;12.80;;;5.70;;
76228;SDS011;65021;53.174;18.160;2023-05-07T00:28:18;9.30;;;4.30;;
76228;SDS011;65021;53.174;18.160;2023-05-07T00:30:45;10.30;;;4.70;;
76228;SDS011;65021;53.174;18.160;2023-05-07T00:33:12;12.00;;;4.10;;
76228;SDS011;65021;53.174;18.160;2023-05-07T00:35:38;10.70;;;4.10;;
76228;SDS011;65021;53.174;18.160;2023-05-07T00:38:05;10.40;;;5.10;;
76228;SDS011;65021;53.174;18.160;2023-05-07T00:40:31;13.00;;;5.30;;
76228;SDS011;65021;53.174;18.160;2023-05-07T00:42:58;11.60;;;5.40;;
76228;SDS011;65021;53.174;18.160;2023-05-07T00:45:26;12.10;;;4.50;;
76228;SDS011;65021;53.174;18.160;2023-05-07T00:47:55;12.10;;;5.40;;
76228;SDS011;65021;53.174;18.160;2023-05-07T00:50:23;12.00;;;5.00;;
76228;SDS011;65021;53.174;18.160;2023-05-07T00:52:50;10.60;;;5.00;;
76228;SDS011;65021;53.174;18.160;2023-05-07T00:55:17;10.80;;;5.40;;
76228;SDS011;65021;53.174;18.160;2023-05-07T00:57:44;14.30;;;5.70;;
76228;SDS011;65021;53.174;18.160;2023-05-07T01:00:11;12.60;;;4.60;;
76228;SDS011;65021;53.174;18.160;2023-05-07T01:02:39;15.40;;;7.00;;
76228;SDS011;65021;53.174;18.160;2023-05-07T01:05:07;13.20;;;6.30;;
76228;SDS011;65021;53.174;18.160;2023-05-07T01:07:35;11.50;;;4.80;;
76228;SDS011;65021;53.174;18.160;2023-05-07T01:10:04;11.40;;;5.00;;
76228;SDS011;65021;53.174;18.160;2023-05-07T01:12:33;12.00;;;4.50;;
76228;SDS011;65021;53.174;18.160;2023-05-07T01:15:01;12.70;;;4.90;;
76228;SDS011;65021;53.174;18.160;2023-05-07T01:17:29;15.80;;;6.50;;
76228;SDS011;65021;53.174;18.160;2023-05-07T01:19:59;15.50;;;6.50;;
76228;SDS011;65021;53.174;18.160;2023-05-07T01:22:35;15.70;;;7.00;;
76228;SDS011;65021;53.174;18.160;2023-05-07T01:25:03;13.00;;;6.30;;
76228;SDS011;65021;53.174;18.160;2023-05-07T01:27:31;13.90;;;5.90;;
76228;SDS011;65021;53.174;18.160;2023-05-07T01:29:59;9.50;;;4.30;;
76228;SDS011;65021;53.174;18.160;2023-05-07T01:32:36;7.70;;;4.30;;
76228;SDS011;65021;53.174;18.160;2023-05-07T01:35:15;11.50;;;5.00;;
76228;SDS011;65021;53.174;18.160;2023-05-07T01:37:46;17.20;;;8.10;;
76228;SDS011;65021;53.174;18.160;2023-05-07T01:40:13;12.90;;;5.60;;
76228;SDS011;65021;53.174;18.160;2023-05-07T01:42:41;23.40;;;8.20;;
76228;SDS011;65021;53.174;18.160;2023-05-07T01:45:09;13.10;;;6.50;;
76228;SDS011;65021;53.174;18.160;2023-05-07T01:47:37;12.40;;;6.20;;
76228;SDS011;65021;53.174;18.160;2023-05-07T01:50:07;13.00;;;6.10;;
76228;SDS011;65021;53.174;18.160;2023-05-07T01:52:37;11.70;;;5.80;;
76228;SDS011;65021;53.174;18.160;2023-05-07T01:55:05;11.10;;;5.70;;
76228;SDS011;65021;53.174;18.160;2023-05-07T01:57:32;15.00;;;5.80;;
76228;SDS011;65021;53.174;18.160;2023-05-07T01:59:59;12.10;;;5.20;;
76228;SDS011;65021;53.174;18.160;2023-05-07T02:02:26;14.10;;;6.10;;
76228;SDS011;65021;53.174;18.160;2023-05-07T02:04:52;12.30;;;6.30;;
76228;SDS011;65021;53.174;18.160;2023-05-07T02:07:19;13.20;;;5.30;;
76228;SDS011;65021;53.174;18.160;2023-05-07T02:09:45;13.20;;;6.50;;
76228;SDS011;65021;53.174;18.160;2023-05-07T02:12:12;15.70;;;6.90;;
76228;SDS011;65021;53.174;18.160;2023-05-07T02:14:38;15.40;;;7.80;;
76228;SDS011;65021;53.174;18.160;2023-05-07T02:17:05;12.00;;;6.70;;
76228;SDS011;65021;53.174;18.160;2023-05-07T02:19:32;18.40;;;7.10;;
76228;SDS011;65021;53.174;18.160;2023-05-07T02:21:58;9.60;;;5.30;;
76228;SDS011;65021;53.174;18.160;2023-05-07T02:24:25;8.50;;;3.90;;
76228;SDS011;65021;53.174;18.160;2023-05-07T02:26:51;11.90;;;5.80;;
76228;SDS011;65021;53.174;18.160;2023-05-07T02:29:18;15.40;;;7.50;;
76228;SDS011;65021;53.174;18.160;2023-05-07T02:31:44;14.20;;;5.60;;
76228;SDS011;65021;53.174;18.160;2023-05-07T02:34:11;12.50;;;6.10;;
76228;SDS011;65021;53.174;18.160;2023-05-07T02:36:38;14.80;;;7.80;;
76228;SDS011;65021;53.174;18.160;2023-05-07T02:39:04;14.30;;;6.00;;
76228;SDS011;65021;53.174;18.160;2023-05-07T02:41:31;9.90;;;5.60;;
76228;SDS011;65021;53.174;18.160;2023-05-07T02:43:58;11.00;;;5.60;;
76228;SDS011;65021;53.174;18.160;2023-05-07T02:46:24;10.70;;;5.90;;
76228;SDS011;65021;53.174;18.160;2023-05-07T02:48:51;13.30;;;6.50;;
76228;SDS011;65021;53.174;18.160;2023-05-07T02:51:19;14.50;;;6.50;;
76228;SDS011;65021;53.174;18.160;2023-05-07T02:53:46;14.80;;;7.60;;
76228;SDS011;65021;53.174;18.160;2023-05-07T02:56:13;17.60;;;8.40;;
76228;SDS011;65021;53.174;18.160;2023-05-07T02:58:40;16.10;;;6.80;;
76228;SDS011;65021;53.174;18.160;2023-05-07T03:01:08;14.20;;;7.20;;
76228;SDS011;65021;53.174;18.160;2023-05-07T03:03:35;13.90;;;7.40;;
76228;SDS011;65021;53.174;18.160;2023-05-07T03:06:02;12.40;;;5.50;;
76228;SDS011;65021;53.174;18.160;2023-05-07T03:08:28;16.50;;;7.80;;
76228;SDS011;65021;53.174;18.160;2023-05-07T03:10:55;17.10;;;8.50;;
76228;SDS011;65021;53.174;18.160;2023-05-07T03:13:22;11.50;;;6.20;;
76228;SDS011;65021;53.174;18.160;2023-05-07T03:15:48;13.90;;;6.70;;
76228;SDS011;65021;53.174;18.160;2023-05-07T03:18:15;14.50;;;7.20;;
76228;SDS011;65021;53.174;18.160;2023-05-07T03:20:41;16.80;;;7.00;;
76228;SDS011;65021;53.174;18.160;2023-05-07T03:23:08;12.10;;;5.80;;
76228;SDS011;65021;53.174;18.160;2023-05-07T03:25:34;14.80;;;6.70;;
76228;SDS011;65021;53.174;18.160;2023-05-07T03:28:01;19.50;;;9.00;;
76228;SDS011;65021;53.174;18.160;2023-05-07T03:30:27;18.40;;;8.30;;
76228;SDS011;65021;53.174;18.160;2023-05-07T03:32:54;17.70;;;8.30;;
76228;SDS011;65021;53.174;18.160;2023-05-07T03:35:20;16.60;;;7.80;;
76228;SDS011;65021;53.174;18.160;2023-05-07T03:37:47;12.60;;;6.90;;
76228;SDS011;65021;53.174;18.160;2023-05-07T03:40:13;16.80;;;8.70;;
76228;SDS011;65021;53.174;18.160;2023-05-07T03:42:40;14.50;;;6.00;;
76228;SDS011;65021;53.174;18.160;2023-05-07T03:45:07;17.80;;;8.70;;
76228;SDS011;65021;53.174;18.160;2023-05-07T03:47:34;18.50;;;9.00;;
76228;SDS011;65021;53.174;18.160;2023-05-07T03:50:01;20.80;;;10.60;;
76228;SDS011;65021;53.174;18.160;2023-05-07T03:52:28;10.40;;;5.90;;
76228;SDS011;65021;53.174;18.160;2023-05-07T03:54:54;13.10;;;7.40;;
76228;SDS011;65021;53.174;18.160;2023-05-07T03:57:21;18.40;;;9.30;;
76228;SDS011;65021;53.174;18.160;2023-05-07T03:59:47;17.40;;;10.00;;
76228;SDS011;65021;53.174;18.160;2023-05-07T04:02:14;13.20;;;6.50;;
76228;SDS011;65021;53.174;18.160;2023-05-07T04:04:40;12.50;;;6.60;;
76228;SDS011;65021;53.174;18.160;2023-05-07T04:07:07;15.40;;;7.90;;
76228;SDS011;65021;53.174;18.160;2023-05-07T04:09:34;13.70;;;7.10;;
76228;SDS011;65021;53.174;18.160;2023-05-07T04:12:00;12.40;;;7.30;;
76228;SDS011;65021;53.174;18.160;2023-05-07T04:14:27;7.30;;;3.80;;
76228;SDS011;65021;53.174;18.160;2023-05-07T04:16:54;14.60;;;8.90;;
76228;SDS011;65021;53.174;18.160;2023-05-07T04:19:20;14.00;;;7.90;;
76228;SDS011;65021;53.174;18.160;2023-05-07T04:21:47;14.20;;;7.70;;
76228;SDS011;65021;53.174;18.160;2023-05-07T04:24:14;16.60;;;9.70;;
76228;SDS011;65021;53.174;18.160;2023-05-07T04:26:40;14.30;;;8.50;;
76228;SDS011;65021;53.174;18.160;2023-05-07T04:29:07;13.70;;;7.70;;
76228;SDS011;65021;53.174;18.160;2023-05-07T04:31:33;17.10;;;8.50;;
76228;SDS011;65021;53.174;18.160;2023-05-07T04:34:00;15.40;;;9.50;;
76228;SDS011;65021;53.174;18.160;2023-05-07T04:36:27;14.70;;;8.80;;
76228;SDS011;65021;53.174;18.160;2023-05-07T04:38:53;12.10;;;8.20;;
76228;SDS011;65021;53.174;18.160;2023-05-07T04:41:20;17.80;;;8.50;;
76228;SDS011;65021;53.174;18.160;2023-05-07T04:43:47;18.30;;;9.70;;
76228;SDS011;65021;53.174;18.160;2023-05-07T04:46:13;13.10;;;7.10;;
76228;SDS011;65021;53.174;18.160;2023-05-07T04:48:40;12.20;;;7.30;;
76228;SDS011;65021;53.174;18.160;2023-05-07T04:51:07;14.70;;;7.50;;
76228;SDS011;65021;53.174;18.160;2023-05-07T04:53:33;13.90;;;8.20;;
76228;SDS011;65021;53.174;18.160;2023-05-07T04:56:00;14.50;;;8.10;;
76228;SDS011;65021;53.174;18.160;2023-05-07T04:58:27;15.90;;;9.40;;
76228;SDS011;65021;53.174;18.160;2023-05-07T05:00:58;12.40;;;7.20;;
76228;SDS011;65021;53.174;18.160;2023-05-07T05:03:24;15.00;;;9.30;;
76228;SDS011;65021;53.174;18.160;2023-05-07T05:05:51;14.40;;;8.70;;
76228;SDS011;65021;53.174;18.160;2023-05-07T05:08:19;13.60;;;8.20;;
76228;SDS011;65021;53.174;18.160;2023-05-07T05:10:45;16.40;;;7.80;;
76228;SDS011;65021;53.174;18.160;2023-05-07T05:13:14;13.10;;;6.60;;
76228;SDS011;65021;53.174;18.160;2023-05-07T05:15:41;12.90;;;7.60;;
76228;SDS011;65021;53.174;18.160;2023-05-07T05:18:08;14.00;;;7.20;;
76228;SDS011;65021;53.174;18.160;2023-05-07T05:20:34;16.40;;;8.50;;
76228;SDS011;65021;53.174;18.160;2023-05-07T05:23:01;11.10;;;5.90;;
76228;SDS011;65021;53.174;18.160;2023-05-07T05:25:27;12.20;;;6.20;;
76228;SDS011;65021;53.174;18.160;2023-05-07T05:27:54;14.30;;;7.50;;
76228;SDS011;65021;53.174;18.160;2023-05-07T05:30:21;14.30;;;7.80;;
76228;SDS011;65021;53.174;18.160;2023-05-07T05:32:48;15.70;;;7.60;;
76228;SDS011;65021;53.174;18.160;2023-05-07T05:35:14;14.60;;;7.00;;
76228;SDS011;65021;53.174;18.160;2023-05-07T05:37:41;12.60;;;6.90;;
76228;SDS011;65021;53.174;18.160;2023-05-07T05:40:08;10.00;;;5.20;;
76228;SDS011;65021;53.174;18.160;2023-05-07T05:42:34;12.60;;;6.60;;
76228;SDS011;65021;53.174;18.160;2023-05-07T05:45:01;11.20;;;6.80;;
76228;SDS011;65021;53.174;18.160;2023-05-07T05:47:28;12.50;;;7.00;;
76228;SDS011;65021;53.174;18.160;2023-05-07T05:49:55;13.20;;;7.30;;
76228;SDS011;65021;53.174;18.160;2023-05-07T05:52:22;11.30;;;6.50;;
76228;SDS011;65021;53.174;18.160;2023-05-07T05:54:50;12.70;;;8.20;;
76228;SDS011;65021;53.174;18.160;2023-05-07T05:57:16;12.70;;;8.30;;
76228;SDS011;65021;53.174;18.160;2023-05-07T05:59:43;13.90;;;8.10;;
76228;SDS011;65021;53.174;18.160;2023-05-07T06:02:10;12.50;;;7.30;;
76228;SDS011;65021;53.174;18.160;2023-05-07T06:04:36;16.30;;;7.00;;
76228;SDS011;65021;53.174;18.160;2023-05-07T06:07:03;12.70;;;7.10;;
76228;SDS011;65021;53.174;18.160;2023-05-07T06:09:30;11.80;;;6.50;;
76228;SDS011;65021;53.174;18.160;2023-05-07T06:11:56;12.40;;;6.70;;
76228;SDS011;65021;53.174;18.160;2023-05-07T06:14:23;12.60;;;5.70;;
76228;SDS011;65021;53.174;18.160;2023-05-07T06:16:49;11.80;;;6.90;;
76228;SDS011;65021;53.174;18.160;2023-05-07T06:19:16;12.70;;;6.00;;
76228;SDS011;65021;53.174;18.160;2023-05-07T06:21:44;13.50;;;7.00;;
76228;SDS011;65021;53.174;18.160;2023-05-07T06:24:13;14.00;;;6.90;;
76228;SDS011;65021;53.174;18.160;2023-05-07T06:26:40;12.70;;;5.90;;
76228;SDS011;65021;53.174;18.160;2023-05-07T06:29:06;13.00;;;5.70;;
76228;SDS011;65021;53.174;18.160;2023-05-07T06:31:33;9.90;;;5.40;;
76228;SDS011;65021;53.174;18.160;2023-05-07T06:34:00;8.80;;;4.40;;
76228;SDS011;65021;53.174;18.160;2023-05-07T06:36:28;11.50;;;5.80;;
76228;SDS011;65021;53.174;18.160;2023-05-07T06:38:55;9.10;;;4.70;;
76228;SDS011;65021;53.174;18.160;2023-05-07T06:41:21;10.40;;;5.70;;
76228;SDS011;65021;53.174;18.160;2023-05-07T06:43:48;10.40;;;5.80;;
76228;SDS011;65021;53.174;18.160;2023-05-07T06:46:15;10.20;;;5.00;;
76228;SDS011;65021;53.174;18.160;2023-05-07T06:48:42;8.40;;;5.20;;
76228;SDS011;65021;53.174;18.160;2023-05-07T06:51:08;9.20;;;5.40;;
76228;SDS011;65021;53.174;18.160;2023-05-07T06:53:35;9.00;;;4.80;;
76228;SDS011;65021;53.174;18.160;2023-05-07T06:56:01;8.60;;;5.00;;
76228;SDS011;65021;53.174;18.160;2023-05-07T06:58:28;9.70;;;5.20;;
76228;SDS011;65021;53.174;18.160;2023-05-07T07:00:55;9.90;;;5.10;;
76228;SDS011;65021;53.174;18.160;2023-05-07T07:03:21;8.50;;;4.20;;
76228;SDS011;65021;53.174;18.160;2023-05-07T07:05:51;10.70;;;4.60;;
76228;SDS011;65021;53.174;18.160;2023-05-07T07:08:19;10.70;;;4.90;;
76228;SDS011;65021;53.174;18.160;2023-05-07T07:10:47;9.30;;;4.70;;
76228;SDS011;65021;53.174;18.160;2023-05-07T07:13:14;7.40;;;4.90;;
76228;SDS011;65021;53.174;18.160;2023-05-07T07:15:41;9.00;;;4.50;;
76228;SDS011;65021;53.174;18.160;2023-05-07T07:18:07;10.00;;;4.40;;
76228;SDS011;65021;53.174;18.160;2023-05-07T07:20:34;8.70;;;4.60;;
76228;SDS011;65021;53.174;18.160;2023-05-07T07:23:00;10.40;;;4.80;;
76228;SDS011;65021;53.174;18.160;2023-05-07T07:25:27;7.20;;;3.30;;
76228;SDS011;65021;53.174;18.160;2023-05-07T07:27:54;9.00;;;4.60;;
76228;SDS011;65021;53.174;18.160;2023-05-07T07:30:20;10.30;;;4.50;;
76228;SDS011;65021;53.174;18.160;2023-05-07T07:32:47;7.50;;;3.50;;
76228;SDS011;65021;53.174;18.160;2023-05-07T07:35:13;9.10;;;5.30;;
76228;SDS011;65021;53.174;18.160;2023-05-07T07:37:40;9.00;;;3.90;;
76228;SDS011;65021;53.174;18.160;2023-05-07T07:40:07;8.20;;;4.00;;
76228;SDS011;65021;53.174;18.160;2023-05-07T07:42:34;8.30;;;4.00;;
76228;SDS011;65021;53.174;18.160;2023-05-07T07:45:00;9.70;;;3.90;;
76228;SDS011;65021;53.174;18.160;2023-05-07T07:47:27;9.00;;;3.30;;
76228;SDS011;65021;53.174;18.160;2023-05-07T07:49:53;6.80;;;3.20;;
76228;SDS011;65021;53.174;18.160;2023-05-07T07:52:20;5.60;;;2.70;;
76228;SDS011;65021;53.174;18.160;2023-05-07T07:54:47;6.00;;;2.40;;
76228;SDS011;65021;53.174;18.160;2023-05-07T07:57:13;3.60;;;1.60;;
76228;SDS011;65021;53.174;18.160;2023-05-07T07:59:40;5.80;;;2.50;;
76228;SDS011;65021;53.174;18.160;2023-05-07T08:02:06;5.90;;;2.50;;
76228;SDS011;65021;53.174;18.160;2023-05-07T08:04:33;6.20;;;2.40;;
76228;SDS011;65021;53.174;18.160;2023-05-07T08:06:59;5.80;;;2.30;;
76228;SDS011;65021;53.174;18.160;2023-05-07T08:09:26;6.20;;;2.70;;
76228;SDS011;65021;53.174;18.160;2023-05-07T08:11:53;6.20;;;2.20;;
76228;SDS011;65021;53.174;18.160;2023-05-07T08:14:19;5.40;;;2.60;;
76228;SDS011;65021;53.174;18.160;2023-05-07T08:16:46;5.80;;;2.40;;
76228;SDS011;65021;53.174;18.160;2023-05-07T08:19:12;4.90;;;2.10;;
76228;SDS011;65021;53.174;18.160;2023-05-07T08:21:39;6.30;;;2.60;;
76228;SDS011;65021;53.174;18.160;2023-05-07T08:24:06;6.10;;;3.00;;
76228;SDS011;65021;53.174;18.160;2023-05-07T08:26:33;5.20;;;2.00;;
76228;SDS011;65021;53.174;18.160;2023-05-07T08:29:02;8.40;;;2.90;;
76228;SDS011;65021;53.174;18.160;2023-05-07T08:31:28;4.40;;;2.20;;
76228;SDS011;65021;53.174;18.160;2023-05-07T08:33:55;5.30;;;2.20;;
76228;SDS011;65021;53.174;18.160;2023-05-07T08:36:22;5.60;;;2.40;;
76228;SDS011;65021;53.174;18.160;2023-05-07T08:38:48;5.10;;;1.60;;
76228;SDS011;65021;53.174;18.160;2023-05-07T08:41:15;4.20;;;1.90;;
76228;SDS011;65021;53.174;18.160;2023-05-07T08:43:42;5.00;;;2.00;;
76228;SDS011;65021;53.174;18.160;2023-05-07T08:46:15;5.50;;;2.70;;
76228;SDS011;65021;53.174;18.160;2023-05-07T08:48:44;4.20;;;2.10;;
76228;SDS011;65021;53.174;18.160;2023-05-07T08:51:15;5.80;;;2.30;;
76228;SDS011;65021;53.174;18.160;2023-05-07T08:53:44;9.50;;;5.20;;
76228;SDS011;65021;53.174;18.160;2023-05-07T08:56:11;5.50;;;2.40;;
76228;SDS011;65021;53.174;18.160;2023-05-07T08:58:38;4.40;;;1.80;;
76228;SDS011;65021;53.174;18.160;2023-05-07T09:01:07;4.00;;;1.80;;
76228;SDS011;65021;53.174;18.160;2023-05-07T09:03:34;5.60;;;2.30;;
76228;SDS011;65021;53.174;18.160;2023-05-07T09:06:02;5.80;;;2.10;;
76228;SDS011;65021;53.174;18.160;2023-05-07T09:08:29;5.70;;;2.40;;
76228;SDS011;65021;53.174;18.160;2023-05-07T09:10:56;5.20;;;2.10;;
76228;SDS011;65021;53.174;18.160;2023-05-07T09:13:22;5.80;;;2.80;;
76228;SDS011;65021;53.174;18.160;2023-05-07T09:15:49;5.10;;;2.50;;
76228;SDS011;65021;53.174;18.160;2023-05-07T09:18:15;4.60;;;2.00;;
76228;SDS011;65021;53.174;18.160;2023-05-07T09:20:42;8.90;;;2.40;;
76228;SDS011;65021;53.174;18.160;2023-05-07T09:23:08;5.20;;;2.40;;
76228;SDS011;65021;53.174;18.160;2023-05-07T09:25:35;6.10;;;2.50;;
76228;SDS011;65021;53.174;18.160;2023-05-07T09:28:03;6.10;;;2.60;;
76228;SDS011;65021;53.174;18.160;2023-05-07T09:30:33;4.60;;;1.70;;
76228;SDS011;65021;53.174;18.160;2023-05-07T09:33:01;6.00;;;2.50;;
76228;SDS011;65021;53.174;18.160;2023-05-07T09:35:29;7.30;;;3.10;;
76228;SDS011;65021;53.174;18.160;2023-05-07T09:37:58;5.00;;;2.60;;
76228;SDS011;65021;53.174;18.160;2023-05-07T09:40:26;5.50;;;2.60;;
76228;SDS011;65021;53.174;18.160;2023-05-07T09:42:54;5.50;;;2.60;;
76228;SDS011;65021;53.174;18.160;2023-05-07T09:45:28;7.60;;;2.90;;
76228;SDS011;65021;53.174;18.160;2023-05-07T09:47:55;4.50;;;2.00;;
76228;SDS011;65021;53.174;18.160;2023-05-07T09:50:27;4.30;;;2.10;;
76228;SDS011;65021;53.174;18.160;2023-05-07T09:52:56;6.80;;;2.70;;
76228;SDS011;65021;53.174;18.160;2023-05-07T09:55:23;4.90;;;1.90;;
76228;SDS011;65021;53.174;18.160;2023-05-07T09:57:50;7.60;;;3.10;;
76228;SDS011;65021;53.174;18.160;2023-05-07T10:00:19;7.10;;;2.30;;
76228;SDS011;65021;53.174;18.160;2023-05-07T10:02:48;4.50;;;1.80;;
76228;SDS011;65021;53.174;18.160;2023-05-07T10:05:21;5.90;;;2.60;;
76228;SDS011;65021;53.174;18.160;2023-05-07T10:07:48;5.00;;;2.30;;
76228;SDS011;65021;53.174;18.160;2023-05-07T10:10:15;5.60;;;1.80;;
76228;SDS011;65021;53.174;18.160;2023-05-07T10:12:43;5.40;;;2.00;;
76228;SDS011;65021;53.174;18.160;2023-05-07T10:15:11;5.70;;;2.50;;
76228;SDS011;65021;53.174;18.160;2023-05-07T10:17:38;3.70;;;1.80;;
76228;SDS011;65021;53.174;18.160;2023-05-07T10:20:06;9.60;;;2.60;;
76228;SDS011;65021;53.174;18.160;2023-05-07T10:22:37;4.70;;;2.10;;
76228;SDS011;65021;53.174;18.160;2023-05-07T10:25:13;7.10;;;2.90;;
76228;SDS011;65021;53.174;18.160;2023-05-07T10:30:20;4.40;;;2.10;;
76228;SDS011;65021;53.174;18.160;2023-05-07T10:32:55;4.90;;;2.10;;
76228;SDS011;65021;53.174;18.160;2023-05-07T10:35:32;5.20;;;2.70;;
76228;SDS011;65021;53.174;18.160;2023-05-07T10:38:04;4.80;;;2.30;;
76228;SDS011;65021;53.174;18.160;2023-05-07T10:40:31;4.10;;;1.90;;
76228;SDS011;65021;53.174;18.160;2023-05-07T10:42:59;4.00;;;1.70;;
76228;SDS011;65021;53.174;18.160;2023-05-07T10:45:28;4.60;;;2.30;;
76228;SDS011;65021;53.174;18.160;2023-05-07T10:48:14;5.20;;;1.90;;
76228;SDS011;65021;53.174;18.160;2023-05-07T10:50:42;4.00;;;1.70;;
76228;SDS011;65021;53.174;18.160;2023-05-07T10:56:23;4.50;;;1.80;;
76228;SDS011;65021;53.174;18.160;2023-05-07T10:58:44;7.70;;;2.30;;
76228;SDS011;65021;53.174;18.160;2023-05-07T11:01:11;4.40;;;2.20;;
76228;SDS011;65021;53.174;18.160;2023-05-07T11:07:09;4.80;;;2.00;;
76228;SDS011;65021;53.174;18.160;2023-05-07T11:15:06;6.10;;;2.70;;
76228;SDS011;65021;53.174;18.160;2023-05-07T11:17:34;4.20;;;1.80;;
76228;SDS011;65021;53.174;18.160;2023-05-07T11:20:18;4.60;;;2.20;;
76228;SDS011;65021;53.174;18.160;2023-05-07T11:22:46;5.30;;;2.10;;
76228;SDS011;65021;53.174;18.160;2023-05-07T11:25:18;4.00;;;1.90;;
76228;SDS011;65021;53.174;18.160;2023-05-07T11:27:45;3.80;;;1.90;;
76228;SDS011;65021;53.174;18.160;2023-05-07T11:30:18;3.80;;;1.90;;
76228;SDS011;65021;53.174;18.160;2023-05-07T11:32:47;5.20;;;1.90;;
76228;SDS011;65021;53.174;18.160;2023-05-07T11:35:14;4.60;;;1.60;;
76228;SDS011;65021;53.174;18.160;2023-05-07T11:37:42;4.10;;;1.80;;
76228;SDS011;65021;53.174;18.160;2023-05-07T11:42:40;3.60;;;1.90;;
76228;SDS011;65021;53.174;18.160;2023-05-07T11:45:09;6.30;;;1.90;;
76228;SDS011;65021;53.174;18.160;2023-05-07T11:47:35;5.80;;;2.50;;
76228;SDS011;65021;53.174;18.160;2023-05-07T11:50:03;5.40;;;2.00;;
76228;SDS011;65021;53.174;18.160;2023-05-07T11:52:31;4.20;;;1.60;;
76228;SDS011;65021;53.174;18.160;2023-05-07T11:54:59;4.30;;;2.00;;
76228;SDS011;65021;53.174;18.160;2023-05-07T11:57:26;4.20;;;1.90;;
76228;SDS011;65021;53.174;18.160;2023-05-07T12:02:21;6.20;;;1.80;;
76228;SDS011;65021;53.174;18.160;2023-05-07T12:04:48;5.10;;;1.90;;
76228;SDS011;65021;53.174;18.160;2023-05-07T12:07:15;5.20;;;2.30;;
76228;SDS011;65021;53.174;18.160;2023-05-07T12:09:42;5.00;;;2.10;;
76228;SDS011;65021;53.174;18.160;2023-05-07T12:12:10;5.00;;;2.60;;
76228;SDS011;65021;53.174;18.160;2023-05-07T12:14:38;4.10;;;2.40;;
76228;SDS011;65021;53.174;18.160;2023-05-07T12:17:09;5.60;;;2.00;;
76228;SDS011;65021;53.174;18.160;2023-05-07T12:19:37;4.00;;;1.80;;
76228;SDS011;65021;53.174;18.160;2023-05-07T12:22:05;6.60;;;2.30;;
76228;SDS011;65021;53.174;18.160;2023-05-07T12:24:45;3.80;;;1.80;;
76228;SDS011;65021;53.174;18.160;2023-05-07T12:27:13;5.40;;;2.30;;
76228;SDS011;65021;53.174;18.160;2023-05-07T12:29:48;5.30;;;2.20;;
76228;SDS011;65021;53.174;18.160;2023-05-07T12:32:19;6.80;;;2.10;;
76228;SDS011;65021;53.174;18.160;2023-05-07T12:34:50;3.90;;;1.70;;
76228;SDS011;65021;53.174;18.160;2023-05-07T12:37:22;4.00;;;1.70;;
76228;SDS011;65021;53.174;18.160;2023-05-07T12:40:02;5.10;;;2.20;;
76228;SDS011;65021;53.174;18.160;2023-05-07T12:42:37;5.90;;;1.60;;
76228;SDS011;65021;53.174;18.160;2023-05-07T12:45:07;3.50;;;1.60;;
76228;SDS011;65021;53.174;18.160;2023-05-07T12:47:37;5.40;;;2.30;;
76228;SDS011;65021;53.174;18.160;2023-05-07T12:50:05;4.50;;;2.40;;
76228;SDS011;65021;53.174;18.160;2023-05-07T12:52:32;6.20;;;2.40;;
76228;SDS011;65021;53.174;18.160;2023-05-07T12:55:05;4.30;;;1.40;;
76228;SDS011;65021;53.174;18.160;2023-05-07T12:57:39;4.40;;;1.90;;
76228;SDS011;65021;53.174;18.160;2023-05-07T13:00:10;8.20;;;2.10;;
76228;SDS011;65021;53.174;18.160;2023-05-07T13:02:38;4.60;;;2.40;;
76228;SDS011;65021;53.174;18.160;2023-05-07T13:07:33;4.70;;;2.40;;
76228;SDS011;65021;53.174;18.160;2023-05-07T13:10:00;4.10;;;1.90;;
76228;SDS011;65021;53.174;18.160;2023-05-07T13:12:27;5.00;;;2.20;;
76228;SDS011;65021;53.174;18.160;2023-05-07T13:14:53;5.00;;;2.60;;
76228;SDS011;65021;53.174;18.160;2023-05-07T13:17:20;5.30;;;2.30;;
76228;SDS011;65021;53.174;18.160;2023-05-07T13:19:46;6.10;;;2.20;;
76228;SDS011;65021;53.174;18.160;2023-05-07T13:22:13;4.50;;;1.90;;
76228;SDS011;65021;53.174;18.160;2023-05-07T13:24:39;4.60;;;2.20;;
76228;SDS011;65021;53.174;18.160;2023-05-07T13:27:07;6.20;;;2.50;;
76228;SDS011;65021;53.174;18.160;2023-05-07T13:29:34;6.50;;;2.40;;
76228;SDS011;65021;53.174;18.160;2023-05-07T13:32:01;4.70;;;2.20;;
76228;SDS011;65021;53.174;18.160;2023-05-07T13:34:28;5.00;;;2.10;;
76228;SDS011;65021;53.174;18.160;2023-05-07T13:36:54;4.40;;;2.00;;
76228;SDS011;65021;53.174;18.160;2023-05-07T13:39:21;5.70;;;2.50;;
76228;SDS011;65021;53.174;18.160;2023-05-07T13:41:48;5.40;;;2.10;;
76228;SDS011;65021;53.174;18.160;2023-05-07T13:44:14;5.80;;;2.60;;
76228;SDS011;65021;53.174;18.160;2023-05-07T13:46:41;4.10;;;2.00;;
76228;SDS011;65021;53.174;18.160;2023-05-07T13:49:08;6.00;;;2.20;;
76228;SDS011;65021;53.174;18.160;2023-05-07T13:51:37;4.80;;;2.10;;
76228;SDS011;65021;53.174;18.160;2023-05-07T13:54:03;4.60;;;2.00;;
76228;SDS011;65021;53.174;18.160;2023-05-07T13:56:30;8.40;;;3.40;;
76228;SDS011;65021;53.174;18.160;2023-05-07T13:58:58;4.50;;;2.00;;
76228;SDS011;65021;53.174;18.160;2023-05-07T14:01:25;3.60;;;1.90;;
76228;SDS011;65021;53.174;18.160;2023-05-07T14:03:51;5.50;;;2.10;;
76228;SDS011;65021;53.174;18.160;2023-05-07T14:06:18;5.60;;;2.10;;
76228;SDS011;65021;53.174;18.160;2023-05-07T14:08:45;3.60;;;1.70;;
76228;SDS011;65021;53.174;18.160;2023-05-07T14:11:11;3.90;;;1.60;;
76228;SDS011;65021;53.174;18.160;2023-05-07T14:13:38;5.60;;;2.00;;
76228;SDS011;65021;53.174;18.160;2023-05-07T14:16:04;5.60;;;1.80;;
76228;SDS011;65021;53.174;18.160;2023-05-07T14:18:31;7.50;;;1.70;;
76228;SDS011;65021;53.174;18.160;2023-05-07T14:20:59;5.30;;;2.30;;
76228;SDS011;65021;53.174;18.160;2023-05-07T14:23:26;4.80;;;2.40;;
76228;SDS011;65021;53.174;18.160;2023-05-07T14:25:53;4.70;;;1.80;;
76228;SDS011;65021;53.174;18.160;2023-05-07T14:28:19;3.30;;;1.70;;
76228;SDS011;65021;53.174;18.160;2023-05-07T14:30:46;3.30;;;1.30;;
76228;SDS011;65021;53.174;18.160;2023-05-07T14:33:13;5.60;;;2.20;;
76228;SDS011;65021;53.174;18.160;2023-05-07T14:35:39;4.90;;;2.30;;
76228;SDS011;65021;53.174;18.160;2023-05-07T14:38:06;5.10;;;2.00;;
76228;SDS011;65021;53.174;18.160;2023-05-07T14:40:33;4.30;;;2.20;;
76228;SDS011;65021;53.174;18.160;2023-05-07T14:42:59;4.90;;;1.70;;
76228;SDS011;65021;53.174;18.160;2023-05-07T14:45:26;3.70;;;1.90;;
76228;SDS011;65021;53.174;18.160;2023-05-07T14:47:53;4.20;;;2.00;;
76228;SDS011;65021;53.174;18.160;2023-05-07T14:50:19;4.40;;;1.90;;
76228;SDS011;65021;53.174;18.160;2023-05-07T14:52:46;4.60;;;2.10;;